sensor_id;sensor_type;location;lat;lon;timestamp;P1;durP1;ratioP1;P2;durP2;ratioP2
43744;SDS011;29359;53.048;8.732;2023-01-25T00:01:04;16.15;;;12.55;;
43744;SDS011;29359;53.048;8.732;2023-01-25T00:03:06;16.35;;;12.05;;
43744;SDS011;29359;53.048;8.732;2023-01-25T00:05:08;14.23;;;11.90;;
43744;SDS011;29359;53.048;8.732;2023-01-25T00:07:10;17.55;;;12.25;;
43744;SDS011;29359;53.048;8.732;2023-01-25T00:09:11;17.65;;;13.63;;
43744;SDS011;29359;53.048;8.732;2023-01-25T00:11:13;15.63;;;12.70;;
43744;SDS011;29359;53.048;8.732;2023-01-25T00:13:17;15.63;;;11.82;;
43744;SDS011;29359;53.048;8.732;2023-01-25T00:15:18;12.30;;;10.65;;
43744;SDS011;29359;53.048;8.732;2023-01-25T00:17:20;12.82;;;10.85;;
43744;SDS011;29359;53.048;8.732;2023-01-25T00:19:21;13.35;;;11.95;;
43744;SDS011;29359;53.048;8.732;2023-01-25T00:21:26;15.00;;;11.73;;
43744;SDS011;29359;53.048;8.732;2023-01-25T00:23:27;15.05;;;11.95;;
43744;SDS011;29359;53.048;8.732;2023-01-25T00:25:29;15.18;;;12.05;;
43744;SDS011;29359;53.048;8.732;2023-01-25T00:27:30;17.00;;;13.40;;
43744;SDS011;29359;53.048;8.732;2023-01-25T00:29:32;16.60;;;13.18;;
43744;SDS011;29359;53.048;8.732;2023-01-25T00:35:44;16.38;;;12.95;;
43744;SDS011;29359;53.048;8.732;2023-01-25T00:37:46;15.07;;;12.45;;
43744;SDS011;29359;53.048;8.732;2023-01-25T00:39:50;15.27;;;12.25;;
43744;SDS011;29359;53.048;8.732;2023-01-25T00:41:52;17.30;;;11.98;;
43744;SDS011;29359;53.048;8.732;2023-01-25T00:43:54;16.27;;;12.40;;
43744;SDS011;29359;53.048;8.732;2023-01-25T00:45:59;14.48;;;12.48;;
43744;SDS011;29359;53.048;8.732;2023-01-25T00:48:02;16.50;;;12.80;;
43744;SDS011;29359;53.048;8.732;2023-01-25T00:50:04;16.15;;;11.95;;
43744;SDS011;29359;53.048;8.732;2023-01-25T00:52:07;15.90;;;12.57;;
43744;SDS011;29359;53.048;8.732;2023-01-25T00:54:09;17.05;;;12.40;;
43744;SDS011;29359;53.048;8.732;2023-01-25T00:56:11;15.63;;;13.13;;
43744;SDS011;29359;53.048;8.732;2023-01-25T00:58:12;17.42;;;13.73;;
43744;SDS011;29359;53.048;8.732;2023-01-25T01:00:14;17.45;;;13.20;;
43744;SDS011;29359;53.048;8.732;2023-01-25T01:02:16;19.00;;;13.80;;
43744;SDS011;29359;53.048;8.732;2023-01-25T01:04:17;22.45;;;14.55;;
43744;SDS011;29359;53.048;8.732;2023-01-25T01:06:20;19.80;;;14.82;;
43744;SDS011;29359;53.048;8.732;2023-01-25T01:08:21;20.00;;;13.73;;
43744;SDS011;29359;53.048;8.732;2023-01-25T01:10:23;21.08;;;14.40;;
43744;SDS011;29359;53.048;8.732;2023-01-25T01:12:24;17.30;;;13.50;;
43744;SDS011;29359;53.048;8.732;2023-01-25T01:14:26;15.13;;;13.35;;
43744;SDS011;29359;53.048;8.732;2023-01-25T01:16:27;16.70;;;13.10;;
43744;SDS011;29359;53.048;8.732;2023-01-25T01:18:33;16.42;;;13.88;;
43744;SDS011;29359;53.048;8.732;2023-01-25T01:20:36;16.60;;;13.32;;
43744;SDS011;29359;53.048;8.732;2023-01-25T01:22:37;17.42;;;14.00;;
43744;SDS011;29359;53.048;8.732;2023-01-25T01:24:39;16.42;;;13.32;;
43744;SDS011;29359;53.048;8.732;2023-01-25T01:26:40;17.13;;;12.88;;
43744;SDS011;29359;53.048;8.732;2023-01-25T01:28:42;14.85;;;12.27;;
43744;SDS011;29359;53.048;8.732;2023-01-25T01:30:43;14.60;;;11.93;;
43744;SDS011;29359;53.048;8.732;2023-01-25T01:32:45;15.05;;;12.63;;
43744;SDS011;29359;53.048;8.732;2023-01-25T01:34:46;18.10;;;13.77;;
43744;SDS011;29359;53.048;8.732;2023-01-25T01:36:48;16.58;;;13.20;;
43744;SDS011;29359;53.048;8.732;2023-01-25T01:38:49;22.15;;;14.57;;
43744;SDS011;29359;53.048;8.732;2023-01-25T01:40:51;18.73;;;14.00;;
43744;SDS011;29359;53.048;8.732;2023-01-25T01:47:44;19.48;;;14.48;;
43744;SDS011;29359;53.048;8.732;2023-01-25T01:49:50;19.45;;;14.77;;
43744;SDS011;29359;53.048;8.732;2023-01-25T01:51:59;17.65;;;14.48;;
43744;SDS011;29359;53.048;8.732;2023-01-25T01:56:55;17.60;;;13.88;;
43744;SDS011;29359;53.048;8.732;2023-01-25T01:59:00;16.67;;;13.93;;
43744;SDS011;29359;53.048;8.732;2023-01-25T02:01:04;19.48;;;14.38;;
43744;SDS011;29359;53.048;8.732;2023-01-25T02:03:06;22.08;;;15.77;;
43744;SDS011;29359;53.048;8.732;2023-01-25T02:05:20;18.80;;;14.55;;
43744;SDS011;29359;53.048;8.732;2023-01-25T02:07:34;18.10;;;15.20;;
43744;SDS011;29359;53.048;8.732;2023-01-25T02:09:37;20.73;;;15.50;;
43744;SDS011;29359;53.048;8.732;2023-01-25T02:11:38;20.73;;;16.35;;
43744;SDS011;29359;53.048;8.732;2023-01-25T02:13:40;23.50;;;16.23;;
43744;SDS011;29359;53.048;8.732;2023-01-25T02:15:43;20.83;;;15.68;;
43744;SDS011;29359;53.048;8.732;2023-01-25T02:17:47;20.40;;;15.65;;
43744;SDS011;29359;53.048;8.732;2023-01-25T02:21:58;21.63;;;14.90;;
43744;SDS011;29359;53.048;8.732;2023-01-25T02:24:11;19.67;;;15.80;;
43744;SDS011;29359;53.048;8.732;2023-01-25T02:26:20;21.23;;;15.85;;
43744;SDS011;29359;53.048;8.732;2023-01-25T02:30:40;18.85;;;14.68;;
43744;SDS011;29359;53.048;8.732;2023-01-25T02:32:43;20.80;;;14.95;;
43744;SDS011;29359;53.048;8.732;2023-01-25T02:34:44;20.10;;;15.52;;
43744;SDS011;29359;53.048;8.732;2023-01-25T02:36:46;23.70;;;15.27;;
43744;SDS011;29359;53.048;8.732;2023-01-25T02:38:52;20.23;;;15.55;;
43744;SDS011;29359;53.048;8.732;2023-01-25T02:41:05;20.70;;;15.48;;
43744;SDS011;29359;53.048;8.732;2023-01-25T02:43:12;25.98;;;15.40;;
43744;SDS011;29359;53.048;8.732;2023-01-25T02:45:15;21.80;;;15.95;;
43744;SDS011;29359;53.048;8.732;2023-01-25T02:47:19;21.42;;;16.70;;
43744;SDS011;29359;53.048;8.732;2023-01-25T02:49:21;23.55;;;17.67;;
43744;SDS011;29359;53.048;8.732;2023-01-25T02:51:23;22.02;;;16.40;;
43744;SDS011;29359;53.048;8.732;2023-01-25T02:53:26;23.33;;;16.20;;
43744;SDS011;29359;53.048;8.732;2023-01-25T02:55:27;22.52;;;17.30;;
43744;SDS011;29359;53.048;8.732;2023-01-25T02:57:29;22.20;;;16.90;;
43744;SDS011;29359;53.048;8.732;2023-01-25T02:59:30;24.90;;;17.75;;
43744;SDS011;29359;53.048;8.732;2023-01-25T03:01:35;25.83;;;17.98;;
43744;SDS011;29359;53.048;8.732;2023-01-25T03:03:38;22.92;;;17.73;;
43744;SDS011;29359;53.048;8.732;2023-01-25T03:05:40;24.10;;;16.70;;
43744;SDS011;29359;53.048;8.732;2023-01-25T03:07:41;24.63;;;16.95;;
43744;SDS011;29359;53.048;8.732;2023-01-25T03:09:43;25.55;;;18.80;;
43744;SDS011;29359;53.048;8.732;2023-01-25T03:11:44;24.48;;;17.98;;
43744;SDS011;29359;53.048;8.732;2023-01-25T03:13:46;30.30;;;18.90;;
43744;SDS011;29359;53.048;8.732;2023-01-25T03:15:47;25.80;;;19.10;;
43744;SDS011;29359;53.048;8.732;2023-01-25T03:17:49;25.08;;;18.80;;
43744;SDS011;29359;53.048;8.732;2023-01-25T03:19:50;28.73;;;20.02;;
43744;SDS011;29359;53.048;8.732;2023-01-25T03:21:54;26.35;;;18.60;;
43744;SDS011;29359;53.048;8.732;2023-01-25T03:23:57;29.13;;;19.40;;
43744;SDS011;29359;53.048;8.732;2023-01-25T03:26:19;30.38;;;21.02;;
43744;SDS011;29359;53.048;8.732;2023-01-25T03:28:22;30.02;;;19.33;;
43744;SDS011;29359;53.048;8.732;2023-01-25T03:30:23;32.90;;;19.23;;
43744;SDS011;29359;53.048;8.732;2023-01-25T03:32:25;28.88;;;19.13;;
43744;SDS011;29359;53.048;8.732;2023-01-25T03:34:26;31.33;;;20.33;;
43744;SDS011;29359;53.048;8.732;2023-01-25T03:36:28;35.58;;;21.10;;
43744;SDS011;29359;53.048;8.732;2023-01-25T03:38:30;32.90;;;21.38;;
43744;SDS011;29359;53.048;8.732;2023-01-25T03:40:31;30.27;;;18.90;;
43744;SDS011;29359;53.048;8.732;2023-01-25T03:42:33;25.40;;;18.02;;
43744;SDS011;29359;53.048;8.732;2023-01-25T03:44:34;27.45;;;18.23;;
43744;SDS011;29359;53.048;8.732;2023-01-25T03:46:36;28.92;;;18.60;;
43744;SDS011;29359;53.048;8.732;2023-01-25T03:48:38;30.98;;;19.85;;
43744;SDS011;29359;53.048;8.732;2023-01-25T03:50:40;33.15;;;19.83;;
43744;SDS011;29359;53.048;8.732;2023-01-25T03:52:41;30.75;;;19.52;;
43744;SDS011;29359;53.048;8.732;2023-01-25T03:54:45;28.40;;;18.42;;
43744;SDS011;29359;53.048;8.732;2023-01-25T03:56:47;28.75;;;19.02;;
43744;SDS011;29359;53.048;8.732;2023-01-25T03:58:48;26.95;;;16.95;;
43744;SDS011;29359;53.048;8.732;2023-01-25T04:00:50;29.63;;;18.45;;
43744;SDS011;29359;53.048;8.732;2023-01-25T04:02:51;31.40;;;19.30;;
43744;SDS011;29359;53.048;8.732;2023-01-25T04:04:53;27.35;;;18.38;;
43744;SDS011;29359;53.048;8.732;2023-01-25T04:06:55;30.10;;;19.77;;
43744;SDS011;29359;53.048;8.732;2023-01-25T04:08:56;27.98;;;18.63;;
43744;SDS011;29359;53.048;8.732;2023-01-25T04:11:01;30.52;;;18.52;;
43744;SDS011;29359;53.048;8.732;2023-01-25T04:13:05;28.13;;;18.02;;
43744;SDS011;29359;53.048;8.732;2023-01-25T04:15:07;26.92;;;17.45;;
43744;SDS011;29359;53.048;8.732;2023-01-25T04:17:09;26.65;;;17.73;;
43744;SDS011;29359;53.048;8.732;2023-01-25T04:19:11;29.42;;;18.63;;
43744;SDS011;29359;53.048;8.732;2023-01-25T04:21:12;28.83;;;18.80;;
43744;SDS011;29359;53.048;8.732;2023-01-25T04:23:14;28.52;;;18.20;;
43744;SDS011;29359;53.048;8.732;2023-01-25T04:25:15;27.60;;;18.10;;
43744;SDS011;29359;53.048;8.732;2023-01-25T04:27:17;31.73;;;18.67;;
43744;SDS011;29359;53.048;8.732;2023-01-25T04:29:18;28.05;;;18.60;;
43744;SDS011;29359;53.048;8.732;2023-01-25T04:31:35;29.58;;;18.42;;
43744;SDS011;29359;53.048;8.732;2023-01-25T04:33:37;30.50;;;19.00;;
43744;SDS011;29359;53.048;8.732;2023-01-25T04:35:38;29.20;;;19.10;;
43744;SDS011;29359;53.048;8.732;2023-01-25T04:37:40;30.83;;;19.15;;
43744;SDS011;29359;53.048;8.732;2023-01-25T04:39:41;30.65;;;18.38;;
43744;SDS011;29359;53.048;8.732;2023-01-25T04:41:43;29.33;;;18.75;;
43744;SDS011;29359;53.048;8.732;2023-01-25T04:43:45;35.85;;;18.50;;
43744;SDS011;29359;53.048;8.732;2023-01-25T04:45:46;33.28;;;19.83;;
43744;SDS011;29359;53.048;8.732;2023-01-25T04:47:48;32.05;;;19.10;;
43744;SDS011;29359;53.048;8.732;2023-01-25T04:49:50;31.50;;;19.33;;
43744;SDS011;29359;53.048;8.732;2023-01-25T04:51:52;31.10;;;19.52;;
43744;SDS011;29359;53.048;8.732;2023-01-25T04:53:53;33.60;;;21.23;;
43744;SDS011;29359;53.048;8.732;2023-01-25T04:55:55;33.75;;;20.42;;
43744;SDS011;29359;53.048;8.732;2023-01-25T04:57:56;33.88;;;21.25;;
43744;SDS011;29359;53.048;8.732;2023-01-25T04:59:58;36.53;;;21.77;;
43744;SDS011;29359;53.048;8.732;2023-01-25T05:01:59;32.20;;;20.58;;
43744;SDS011;29359;53.048;8.732;2023-01-25T05:04:01;33.55;;;20.45;;
43744;SDS011;29359;53.048;8.732;2023-01-25T05:06:02;33.58;;;20.38;;
43744;SDS011;29359;53.048;8.732;2023-01-25T05:08:04;34.75;;;20.40;;
43744;SDS011;29359;53.048;8.732;2023-01-25T05:10:06;32.72;;;20.92;;
43744;SDS011;29359;53.048;8.732;2023-01-25T05:12:08;37.00;;;21.33;;
43744;SDS011;29359;53.048;8.732;2023-01-25T05:14:13;35.20;;;20.95;;
43744;SDS011;29359;53.048;8.732;2023-01-25T05:16:15;34.20;;;20.48;;
43744;SDS011;29359;53.048;8.732;2023-01-25T05:18:16;36.65;;;21.65;;
43744;SDS011;29359;53.048;8.732;2023-01-25T05:20:18;39.15;;;22.70;;
43744;SDS011;29359;53.048;8.732;2023-01-25T05:22:19;39.00;;;21.67;;
43744;SDS011;29359;53.048;8.732;2023-01-25T05:24:21;37.70;;;20.58;;
43744;SDS011;29359;53.048;8.732;2023-01-25T05:26:23;37.03;;;22.15;;
43744;SDS011;29359;53.048;8.732;2023-01-25T05:28:43;39.22;;;23.65;;
43744;SDS011;29359;53.048;8.732;2023-01-25T05:30:44;43.63;;;24.13;;
43744;SDS011;29359;53.048;8.732;2023-01-25T05:32:47;36.38;;;22.35;;
43744;SDS011;29359;53.048;8.732;2023-01-25T05:34:49;37.75;;;22.13;;
43744;SDS011;29359;53.048;8.732;2023-01-25T05:36:51;38.53;;;23.77;;
43744;SDS011;29359;53.048;8.732;2023-01-25T05:38:53;43.00;;;22.85;;
43744;SDS011;29359;53.048;8.732;2023-01-25T05:40:56;37.97;;;23.05;;
43744;SDS011;29359;53.048;8.732;2023-01-25T05:42:58;37.70;;;22.70;;
43744;SDS011;29359;53.048;8.732;2023-01-25T05:45:00;38.13;;;23.05;;
43744;SDS011;29359;53.048;8.732;2023-01-25T05:47:01;36.67;;;22.08;;
43744;SDS011;29359;53.048;8.732;2023-01-25T05:49:03;36.83;;;22.40;;
43744;SDS011;29359;53.048;8.732;2023-01-25T05:51:05;37.05;;;21.50;;
43744;SDS011;29359;53.048;8.732;2023-01-25T05:53:06;38.28;;;22.90;;
43744;SDS011;29359;53.048;8.732;2023-01-25T05:55:08;37.50;;;21.92;;
43744;SDS011;29359;53.048;8.732;2023-01-25T05:57:12;37.88;;;22.67;;
43744;SDS011;29359;53.048;8.732;2023-01-25T05:59:14;35.85;;;21.50;;
43744;SDS011;29359;53.048;8.732;2023-01-25T06:01:17;35.60;;;22.60;;
43744;SDS011;29359;53.048;8.732;2023-01-25T06:03:18;38.78;;;21.42;;
43744;SDS011;29359;53.048;8.732;2023-01-25T06:05:20;36.80;;;20.02;;
43744;SDS011;29359;53.048;8.732;2023-01-25T06:07:22;36.15;;;22.40;;
43744;SDS011;29359;53.048;8.732;2023-01-25T06:09:25;34.75;;;21.45;;
43744;SDS011;29359;53.048;8.732;2023-01-25T06:11:27;35.25;;;22.17;;
43744;SDS011;29359;53.048;8.732;2023-01-25T06:13:28;33.97;;;21.40;;
43744;SDS011;29359;53.048;8.732;2023-01-25T06:15:30;35.22;;;20.55;;
43744;SDS011;29359;53.048;8.732;2023-01-25T06:17:31;30.35;;;19.25;;
43744;SDS011;29359;53.048;8.732;2023-01-25T06:19:33;33.55;;;20.15;;
43744;SDS011;29359;53.048;8.732;2023-01-25T06:21:34;36.22;;;20.27;;
43744;SDS011;29359;53.048;8.732;2023-01-25T06:23:39;31.17;;;19.17;;
43744;SDS011;29359;53.048;8.732;2023-01-25T06:25:40;33.65;;;20.98;;
43744;SDS011;29359;53.048;8.732;2023-01-25T06:27:42;32.97;;;20.80;;
43744;SDS011;29359;53.048;8.732;2023-01-25T06:29:44;34.17;;;21.30;;
43744;SDS011;29359;53.048;8.732;2023-01-25T06:31:45;35.70;;;22.00;;
43744;SDS011;29359;53.048;8.732;2023-01-25T06:33:50;33.03;;;19.50;;
43744;SDS011;29359;53.048;8.732;2023-01-25T06:35:52;36.45;;;22.75;;
43744;SDS011;29359;53.048;8.732;2023-01-25T06:37:55;33.83;;;21.08;;
43744;SDS011;29359;53.048;8.732;2023-01-25T06:39:56;38.17;;;21.48;;
43744;SDS011;29359;53.048;8.732;2023-01-25T06:41:58;37.03;;;21.58;;
43744;SDS011;29359;53.048;8.732;2023-01-25T06:44:00;35.42;;;20.80;;
43744;SDS011;29359;53.048;8.732;2023-01-25T06:46:05;34.65;;;21.40;;
43744;SDS011;29359;53.048;8.732;2023-01-25T06:48:08;34.47;;;20.73;;
43744;SDS011;29359;53.048;8.732;2023-01-25T06:50:13;36.33;;;21.85;;
43744;SDS011;29359;53.048;8.732;2023-01-25T06:52:15;35.13;;;21.83;;
43744;SDS011;29359;53.048;8.732;2023-01-25T06:54:16;37.17;;;22.25;;
43744;SDS011;29359;53.048;8.732;2023-01-25T06:56:19;35.78;;;22.58;;
43744;SDS011;29359;53.048;8.732;2023-01-25T06:58:22;38.78;;;22.38;;
43744;SDS011;29359;53.048;8.732;2023-01-25T07:00:23;35.58;;;21.77;;
43744;SDS011;29359;53.048;8.732;2023-01-25T07:02:25;35.25;;;21.35;;
43744;SDS011;29359;53.048;8.732;2023-01-25T07:04:27;39.95;;;23.70;;
43744;SDS011;29359;53.048;8.732;2023-01-25T07:06:30;37.92;;;22.95;;
43744;SDS011;29359;53.048;8.732;2023-01-25T07:08:34;36.13;;;22.35;;
43744;SDS011;29359;53.048;8.732;2023-01-25T07:10:37;36.78;;;23.10;;
43744;SDS011;29359;53.048;8.732;2023-01-25T07:12:38;38.92;;;22.60;;
43744;SDS011;29359;53.048;8.732;2023-01-25T07:14:39;36.28;;;22.17;;
43744;SDS011;29359;53.048;8.732;2023-01-25T07:16:41;35.75;;;21.98;;
43744;SDS011;29359;53.048;8.732;2023-01-25T07:18:43;40.13;;;23.63;;
43744;SDS011;29359;53.048;8.732;2023-01-25T07:20:44;35.47;;;23.27;;
43744;SDS011;29359;53.048;8.732;2023-01-25T07:22:46;34.83;;;22.10;;
43744;SDS011;29359;53.048;8.732;2023-01-25T07:24:48;41.30;;;23.58;;
43744;SDS011;29359;53.048;8.732;2023-01-25T07:26:52;38.22;;;22.80;;
43744;SDS011;29359;53.048;8.732;2023-01-25T07:28:54;38.58;;;23.77;;
43744;SDS011;29359;53.048;8.732;2023-01-25T07:31:06;43.58;;;24.27;;
43744;SDS011;29359;53.048;8.732;2023-01-25T07:33:08;43.60;;;25.23;;
43744;SDS011;29359;53.048;8.732;2023-01-25T07:35:11;43.90;;;25.10;;
43744;SDS011;29359;53.048;8.732;2023-01-25T07:37:12;43.53;;;23.77;;
43744;SDS011;29359;53.048;8.732;2023-01-25T07:39:14;41.88;;;25.02;;
43744;SDS011;29359;53.048;8.732;2023-01-25T07:41:15;45.25;;;26.60;;
43744;SDS011;29359;53.048;8.732;2023-01-25T07:43:17;42.17;;;26.27;;
43744;SDS011;29359;53.048;8.732;2023-01-25T07:45:19;45.88;;;25.60;;
43744;SDS011;29359;53.048;8.732;2023-01-25T07:47:21;44.63;;;26.52;;
43744;SDS011;29359;53.048;8.732;2023-01-25T07:49:23;45.67;;;26.55;;
43744;SDS011;29359;53.048;8.732;2023-01-25T07:51:24;44.97;;;26.85;;
43744;SDS011;29359;53.048;8.732;2023-01-25T07:53:30;42.60;;;25.20;;
43744;SDS011;29359;53.048;8.732;2023-01-25T07:55:32;43.72;;;26.23;;
43744;SDS011;29359;53.048;8.732;2023-01-25T07:57:34;40.90;;;24.77;;
43744;SDS011;29359;53.048;8.732;2023-01-25T07:59:35;42.28;;;26.20;;
43744;SDS011;29359;53.048;8.732;2023-01-25T08:01:37;43.15;;;25.95;;
43744;SDS011;29359;53.048;8.732;2023-01-25T08:03:39;46.38;;;27.10;;
43744;SDS011;29359;53.048;8.732;2023-01-25T08:05:44;41.60;;;25.92;;
43744;SDS011;29359;53.048;8.732;2023-01-25T08:07:46;43.17;;;25.38;;
43744;SDS011;29359;53.048;8.732;2023-01-25T08:09:48;45.47;;;25.73;;
43744;SDS011;29359;53.048;8.732;2023-01-25T08:11:49;52.35;;;27.40;;
43744;SDS011;29359;53.048;8.732;2023-01-25T08:13:53;49.17;;;28.08;;
43744;SDS011;29359;53.048;8.732;2023-01-25T08:15:55;45.63;;;26.05;;
43744;SDS011;29359;53.048;8.732;2023-01-25T08:18:00;44.90;;;27.20;;
43744;SDS011;29359;53.048;8.732;2023-01-25T08:20:02;49.45;;;28.17;;
43744;SDS011;29359;53.048;8.732;2023-01-25T08:22:06;45.22;;;26.75;;
43744;SDS011;29359;53.048;8.732;2023-01-25T08:24:08;43.03;;;26.02;;
43744;SDS011;29359;53.048;8.732;2023-01-25T08:26:11;42.50;;;26.00;;
43744;SDS011;29359;53.048;8.732;2023-01-25T08:28:14;40.63;;;25.58;;
43744;SDS011;29359;53.048;8.732;2023-01-25T08:30:15;40.25;;;25.33;;
43744;SDS011;29359;53.048;8.732;2023-01-25T08:32:17;43.28;;;25.83;;
43744;SDS011;29359;53.048;8.732;2023-01-25T08:34:19;42.78;;;24.30;;
43744;SDS011;29359;53.048;8.732;2023-01-25T08:36:20;42.78;;;24.77;;
43744;SDS011;29359;53.048;8.732;2023-01-25T08:38:24;43.97;;;24.98;;
43744;SDS011;29359;53.048;8.732;2023-01-25T08:40:26;44.17;;;25.45;;
43744;SDS011;29359;53.048;8.732;2023-01-25T08:42:27;38.13;;;23.58;;
43744;SDS011;29359;53.048;8.732;2023-01-25T08:44:29;38.78;;;23.92;;
43744;SDS011;29359;53.048;8.732;2023-01-25T08:46:31;42.10;;;23.70;;
43744;SDS011;29359;53.048;8.732;2023-01-25T08:48:34;40.35;;;24.02;;
43744;SDS011;29359;53.048;8.732;2023-01-25T08:50:35;40.42;;;22.33;;
43744;SDS011;29359;53.048;8.732;2023-01-25T08:52:37;35.95;;;21.65;;
43744;SDS011;29359;53.048;8.732;2023-01-25T08:54:39;38.47;;;22.17;;
43744;SDS011;29359;53.048;8.732;2023-01-25T08:56:44;34.38;;;21.92;;
43744;SDS011;29359;53.048;8.732;2023-01-25T08:58:46;36.45;;;22.60;;
43744;SDS011;29359;53.048;8.732;2023-01-25T09:00:48;37.10;;;22.10;;
43744;SDS011;29359;53.048;8.732;2023-01-25T09:02:50;34.72;;;22.88;;
43744;SDS011;29359;53.048;8.732;2023-01-25T09:04:51;35.63;;;21.85;;
43744;SDS011;29359;53.048;8.732;2023-01-25T09:06:53;33.03;;;21.08;;
43744;SDS011;29359;53.048;8.732;2023-01-25T09:08:57;38.17;;;20.95;;
43744;SDS011;29359;53.048;8.732;2023-01-25T09:11:00;32.20;;;20.65;;
43744;SDS011;29359;53.048;8.732;2023-01-25T09:13:02;32.80;;;21.08;;
43744;SDS011;29359;53.048;8.732;2023-01-25T09:15:04;32.75;;;20.00;;
43744;SDS011;29359;53.048;8.732;2023-01-25T09:17:06;33.22;;;20.40;;
43744;SDS011;29359;53.048;8.732;2023-01-25T09:19:08;34.60;;;21.25;;
43744;SDS011;29359;53.048;8.732;2023-01-25T09:21:11;32.78;;;20.73;;
43744;SDS011;29359;53.048;8.732;2023-01-25T09:23:17;30.63;;;19.73;;
43744;SDS011;29359;53.048;8.732;2023-01-25T09:25:22;35.13;;;20.83;;
43744;SDS011;29359;53.048;8.732;2023-01-25T09:27:26;34.88;;;20.05;;
43744;SDS011;29359;53.048;8.732;2023-01-25T09:29:28;30.20;;;19.45;;
43744;SDS011;29359;53.048;8.732;2023-01-25T09:31:29;33.08;;;20.83;;
43744;SDS011;29359;53.048;8.732;2023-01-25T09:33:32;29.27;;;19.33;;
43744;SDS011;29359;53.048;8.732;2023-01-25T09:35:35;30.52;;;19.95;;
43744;SDS011;29359;53.048;8.732;2023-01-25T09:37:37;30.80;;;19.77;;
43744;SDS011;29359;53.048;8.732;2023-01-25T09:39:40;32.38;;;20.75;;
43744;SDS011;29359;53.048;8.732;2023-01-25T09:48:43;25.88;;;15.18;;
43744;SDS011;29359;53.048;8.732;2023-01-25T09:51:20;32.45;;;20.05;;
43744;SDS011;29359;53.048;8.732;2023-01-25T09:53:29;30.98;;;19.77;;
43744;SDS011;29359;53.048;8.732;2023-01-25T09:55:34;36.92;;;22.20;;
43744;SDS011;29359;53.048;8.732;2023-01-25T09:57:36;35.53;;;21.48;;
43744;SDS011;29359;53.048;8.732;2023-01-25T09:59:40;36.15;;;22.20;;
43744;SDS011;29359;53.048;8.732;2023-01-25T10:01:55;37.38;;;21.67;;
43744;SDS011;29359;53.048;8.732;2023-01-25T10:04:04;38.05;;;21.67;;
43744;SDS011;29359;53.048;8.732;2023-01-25T10:06:13;33.50;;;21.52;;
43744;SDS011;29359;53.048;8.732;2023-01-25T10:08:29;38.70;;;22.52;;
43744;SDS011;29359;53.048;8.732;2023-01-25T10:10:32;38.40;;;22.90;;
43744;SDS011;29359;53.048;8.732;2023-01-25T10:12:37;38.55;;;23.48;;
43744;SDS011;29359;53.048;8.732;2023-01-25T10:14:39;37.67;;;22.73;;
43744;SDS011;29359;53.048;8.732;2023-01-25T10:18:53;41.17;;;24.70;;
43744;SDS011;29359;53.048;8.732;2023-01-25T10:21:17;37.35;;;23.55;;
43744;SDS011;29359;53.048;8.732;2023-01-25T10:25:44;45.00;;;25.38;;
43744;SDS011;29359;53.048;8.732;2023-01-25T10:28:01;43.70;;;25.10;;
43744;SDS011;29359;53.048;8.732;2023-01-25T10:32:36;44.20;;;25.48;;
43744;SDS011;29359;53.048;8.732;2023-01-25T10:34:51;46.17;;;25.15;;
43744;SDS011;29359;53.048;8.732;2023-01-25T10:37:09;44.20;;;25.83;;
43744;SDS011;29359;53.048;8.732;2023-01-25T10:39:14;42.65;;;23.67;;
43744;SDS011;29359;53.048;8.732;2023-01-25T10:43:27;43.08;;;23.05;;
43744;SDS011;29359;53.048;8.732;2023-01-25T10:45:29;42.28;;;24.63;;
43744;SDS011;29359;53.048;8.732;2023-01-25T10:47:30;39.88;;;23.02;;
43744;SDS011;29359;53.048;8.732;2023-01-25T10:49:49;38.90;;;23.30;;
43744;SDS011;29359;53.048;8.732;2023-01-25T10:51:52;42.92;;;23.38;;
43744;SDS011;29359;53.048;8.732;2023-01-25T10:53:58;37.50;;;23.00;;
43744;SDS011;29359;53.048;8.732;2023-01-25T10:56:10;39.50;;;23.58;;
43744;SDS011;29359;53.048;8.732;2023-01-25T10:58:29;42.00;;;23.80;;
43744;SDS011;29359;53.048;8.732;2023-01-25T11:00:41;38.58;;;23.02;;
43744;SDS011;29359;53.048;8.732;2023-01-25T11:02:44;37.05;;;22.42;;
43744;SDS011;29359;53.048;8.732;2023-01-25T11:04:47;34.28;;;21.15;;
43744;SDS011;29359;53.048;8.732;2023-01-25T11:06:49;37.90;;;22.08;;
43744;SDS011;29359;53.048;8.732;2023-01-25T11:08:51;38.75;;;22.60;;
43744;SDS011;29359;53.048;8.732;2023-01-25T11:10:53;38.20;;;22.58;;
43744;SDS011;29359;53.048;8.732;2023-01-25T11:15:24;35.83;;;21.73;;
43744;SDS011;29359;53.048;8.732;2023-01-25T11:17:29;37.75;;;22.90;;
43744;SDS011;29359;53.048;8.732;2023-01-25T11:19:35;35.33;;;21.15;;
43744;SDS011;29359;53.048;8.732;2023-01-25T11:21:39;36.22;;;21.08;;
43744;SDS011;29359;53.048;8.732;2023-01-25T11:26:34;37.17;;;22.20;;
43744;SDS011;29359;53.048;8.732;2023-01-25T11:28:26;41.58;;;22.15;;
43744;SDS011;29359;53.048;8.732;2023-01-25T11:30:28;37.38;;;22.70;;
43744;SDS011;29359;53.048;8.732;2023-01-25T11:32:30;39.92;;;22.98;;
43744;SDS011;29359;53.048;8.732;2023-01-25T11:34:32;38.65;;;22.52;;
43744;SDS011;29359;53.048;8.732;2023-01-25T11:38:58;38.78;;;23.05;;
43744;SDS011;29359;53.048;8.732;2023-01-25T11:43:15;39.65;;;23.45;;
43744;SDS011;29359;53.048;8.732;2023-01-25T11:48:12;38.85;;;22.85;;
43744;SDS011;29359;53.048;8.732;2023-01-25T11:50:27;41.35;;;24.33;;
43744;SDS011;29359;53.048;8.732;2023-01-25T11:56:53;37.60;;;22.73;;
43744;SDS011;29359;53.048;8.732;2023-01-25T12:32:33;40.63;;;24.02;;
43744;SDS011;29359;53.048;8.732;2023-01-25T12:34:40;37.55;;;21.23;;
43744;SDS011;29359;53.048;8.732;2023-01-25T12:36:47;37.40;;;22.80;;
43744;SDS011;29359;53.048;8.732;2023-01-25T12:41:17;36.35;;;22.75;;
43744;SDS011;29359;53.048;8.732;2023-01-25T12:43:37;41.42;;;23.63;;
43744;SDS011;29359;53.048;8.732;2023-01-25T12:45:47;37.53;;;22.17;;
43744;SDS011;29359;53.048;8.732;2023-01-25T12:47:55;42.85;;;23.90;;
43744;SDS011;29359;53.048;8.732;2023-01-25T12:52:06;37.40;;;21.48;;
43744;SDS011;29359;53.048;8.732;2023-01-25T12:54:34;37.63;;;22.15;;
43744;SDS011;29359;53.048;8.732;2023-01-25T12:56:41;36.67;;;21.92;;
43744;SDS011;29359;53.048;8.732;2023-01-25T12:59:10;39.25;;;22.63;;
43744;SDS011;29359;53.048;8.732;2023-01-25T13:01:30;41.15;;;22.88;;
43744;SDS011;29359;53.048;8.732;2023-01-25T13:05:47;42.72;;;24.08;;
43744;SDS011;29359;53.048;8.732;2023-01-25T13:12:04;41.28;;;22.83;;
43744;SDS011;29359;53.048;8.732;2023-01-25T13:18:34;47.80;;;26.67;;
43744;SDS011;29359;53.048;8.732;2023-01-25T13:29:43;59.63;;;29.05;;
43744;SDS011;29359;53.048;8.732;2023-01-25T13:31:49;59.85;;;30.67;;
43744;SDS011;29359;53.048;8.732;2023-01-25T13:33:53;61.40;;;32.15;;
43744;SDS011;29359;53.048;8.732;2023-01-25T13:35:55;48.08;;;27.77;;
43744;SDS011;29359;53.048;8.732;2023-01-25T13:38:01;49.42;;;28.15;;
43744;SDS011;29359;53.048;8.732;2023-01-25T13:40:03;48.55;;;27.35;;
43744;SDS011;29359;53.048;8.732;2023-01-25T13:42:28;48.55;;;26.98;;
43744;SDS011;29359;53.048;8.732;2023-01-25T13:44:32;51.95;;;28.65;;
43744;SDS011;29359;53.048;8.732;2023-01-25T13:46:38;54.65;;;29.80;;
43744;SDS011;29359;53.048;8.732;2023-01-25T13:48:47;51.05;;;28.35;;
43744;SDS011;29359;53.048;8.732;2023-01-25T13:50:59;52.83;;;28.75;;